Time;durP1;ratioP1;P1;durP2;ratioP2;P2;SDS_P1;SDS_P2;PMS_P1;PMS_P2;Temp;Humidity;BMP_temperature;BMP_pressure;BME280_temperature;BME280_humidity;BME280_pressure;Samples;Min_cycle;Max_cycle;Signal;HPM_P1;HPM_P2
2023/06/03 00:00:28;;;;;;;7.35;6.57;;;;;;;;;;2017755;29;20025;-88
2023/06/03 00:01:29;;;;;;;8.35;5.60;;;;;;;;;;2025896;29;20025;-88
2023/06/03 00:02:29;;;;;;;7.72;6.43;;;;;;;;;;2033875;29;20009;-88
2023/06/03 00:03:32;;;;;;;7.22;5.70;;;;;;;;;;2025222;29;20025;-87
2023/06/03 00:04:32;;;;;;;7.80;6.30;;;;;;;;;;2017550;29;20013;-87
2023/06/03 00:05:32;;;;;;;9.52;5.80;;;;;;;;;;2025787;29;20037;-88
2023/06/03 00:06:33;;;;;;;7.60;5.65;;;;;;;;;;2033037;29;20073;-88
2023/06/03 00:07:33;;;;;;;7.70;5.93;;;;;;;;;;2033352;29;20020;-88
2023/06/03 00:08:33;;;;;;;9.98;6.25;;;;;;;;;;2023021;29;20021;-89
2023/06/03 00:09:34;;;;;;;8.70;5.78;;;;;;;;;;2014771;29;20072;-88
2023/06/03 00:10:35;;;;;;;7.70;5.95;;;;;;;;;;2020038;29;20021;-89
2023/06/03 00:11:37;;;;;;;9.50;5.75;;;;;;;;;;2025568;29;20024;-89
2023/06/03 00:12:38;;;;;;;7.30;5.95;;;;;;;;;;2016741;29;20045;-89
2023/06/03 00:13:39;;;;;;;8.88;6.15;;;;;;;;;;2008978;29;20042;-89
2023/06/03 00:14:39;;;;;;;9.32;6.03;;;;;;;;;;2016594;29;20152;-89
2023/06/03 00:15:40;;;;;;;8.48;5.95;;;;;;;;;;2016715;29;20108;-89
2023/06/03 00:16:45;;;;;;;7.85;6.00;;;;;;;;;;2017006;29;20122;-89
2023/06/03 00:17:45;;;;;;;8.00;5.47;;;;;;;;;;2027676;29;20645;-89
2023/06/03 00:18:46;;;;;;;8.48;5.75;;;;;;;;;;2016215;29;20033;-88
2023/06/03 00:19:47;;;;;;;6.95;5.45;;;;;;;;;;2016469;29;20040;-88
2023/06/03 00:20:48;;;;;;;8.38;5.63;;;;;;;;;;2025882;29;20616;-90
2023/06/03 00:21:49;;;;;;;9.07;6.13;;;;;;;;;;2017286;29;20216;-90
2023/06/03 00:22:49;;;;;;;8.77;5.38;;;;;;;;;;2017336;29;20032;-90
2023/06/03 00:23:50;;;;;;;8.52;6.25;;;;;;;;;;2024792;29;20025;-90
2023/06/03 00:24:50;;;;;;;6.80;5.78;;;;;;;;;;2025681;29;20024;-89
2023/06/03 00:25:51;;;;;;;9.02;6.32;;;;;;;;;;2017670;29;20418;-89
2023/06/03 00:26:52;;;;;;;6.90;5.90;;;;;;;;;;2017457;29;20025;-90
2023/06/03 00:27:53;;;;;;;6.93;5.97;;;;;;;;;;2025064;29;20107;-90
2023/06/03 00:28:53;;;;;;;8.25;5.57;;;;;;;;;;2017154;29;20122;-89
2023/06/03 00:29:53;;;;;;;7.22;6.30;;;;;;;;;;2009707;29;20025;-90
2023/06/03 00:30:54;;;;;;;9.25;5.80;;;;;;;;;;1673917;29;10208679;-90
2023/06/03 00:31:54;;;;;;;7.10;6.35;;;;;;;;;;2017500;29;20267;-90
2023/06/03 00:32:55;;;;;;;6.90;6.20;;;;;;;;;;2017610;29;20021;-90
2023/06/03 00:33:55;;;;;;;9.65;6.40;;;;;;;;;;2017560;29;20052;-89
2023/06/03 00:34:55;;;;;;;8.23;6.43;;;;;;;;;;2010081;29;20037;-90
2023/06/03 00:35:56;;;;;;;8.13;6.28;;;;;;;;;;2009988;29;20422;-90
2023/06/03 00:36:56;;;;;;;7.25;6.47;;;;;;;;;;2009428;29;20109;-89
2023/06/03 00:37:57;;;;;;;9.25;5.50;;;;;;;;;;2018025;29;20050;-89
2023/06/03 00:38:57;;;;;;;7.15;6.40;;;;;;;;;;2025721;29;20032;-89
2023/06/03 00:39:58;;;;;;;10.05;6.18;;;;;;;;;;2025559;29;20084;-89
2023/06/03 00:40:58;;;;;;;6.18;5.40;;;;;;;;;;2026168;29;20055;-89
2023/06/03 00:42:00;;;;;;;8.25;6.50;;;;;;;;;;2025777;29;20021;-89
2023/06/03 00:43:00;;;;;;;7.50;6.45;;;;;;;;;;2018932;29;20073;-89
2023/06/03 00:44:00;;;;;;;8.52;6.72;;;;;;;;;;2019229;29;20085;-89
2023/06/03 00:45:01;;;;;;;7.97;6.72;;;;;;;;;;2019912;29;20020;-89
2023/06/03 00:46:01;;;;;;;9.88;6.15;;;;;;;;;;2018515;29;20072;-90
2023/06/03 00:47:02;;;;;;;7.78;6.55;;;;;;;;;;2024580;29;20490;-89
2023/06/03 00:48:03;;;;;;;9.10;6.25;;;;;;;;;;2021314;29;20394;-89
2023/06/03 00:49:04;;;;;;;10.43;7.32;;;;;;;;;;2019480;29;20029;-89
2023/06/03 00:50:06;;;;;;;8.88;6.72;;;;;;;;;;2016848;29;20021;-89
2023/06/03 00:51:07;;;;;;;9.43;6.40;;;;;;;;;;2016997;29;20036;-89
2023/06/03 00:52:08;;;;;;;6.78;6.07;;;;;;;;;;2024839;29;20070;-89
2023/06/03 00:53:09;;;;;;;9.98;6.82;;;;;;;;;;2024777;29;20461;-89
2023/06/03 00:54:09;;;;;;;7.28;6.53;;;;;;;;;;2025467;29;20485;-89
2023/06/03 00:55:10;;;;;;;9.88;6.15;;;;;;;;;;2016742;29;20029;-89
2023/06/03 00:56:12;;;;;;;7.68;6.25;;;;;;;;;;2016714;29;20033;-89
2023/06/03 00:57:13;;;;;;;7.60;6.45;;;;;;;;;;2016760;29;20474;-88
2023/06/03 00:58:13;;;;;;;9.20;6.95;;;;;;;;;;2009045;29;20056;-89
2023/06/03 00:59:16;;;;;;;9.23;6.50;;;;;;;;;;2017143;29;20465;-88
2023/06/03 01:00:16;;;;;;;9.07;6.57;;;;;;;;;;2019158;29;20029;-88
2023/06/03 01:01:19;;;;;;;8.10;6.35;;;;;;;;;;1666599;29;10542208;-89
2023/06/03 01:02:19;;;;;;;10.13;6.22;;;;;;;;;;2033005;29;20040;-89
2023/06/03 01:03:20;;;;;;;8.38;6.30;;;;;;;;;;2033617;29;20025;-89
2023/06/03 01:04:25;;;;;;;7.85;6.40;;;;;;;;;;2025412;29;20029;-89
2023/06/03 01:05:25;;;;;;;6.85;6.15;;;;;;;;;;2022963;29;20040;-89
2023/06/03 01:07:01;;;;;;;7.72;6.63;;;;;;;;;;2029777;29;20118;-89
2023/06/03 01:08:15;;;;;;;8.80;6.47;;;;;;;;;;2019439;29;20421;-89
2023/06/03 01:09:29;;;;;;;8.02;5.93;;;;;;;;;;2018958;29;20139;-88
2023/06/03 01:10:40;;;;;;;7.72;5.95;;;;;;;;;;2016948;29;20420;-89
2023/06/03 01:11:59;;;;;;;8.90;6.72;;;;;;;;;;2018520;29;20029;-89
2023/06/03 01:13:08;;;;;;;9.07;6.75;;;;;;;;;;2016759;29;20104;-88
2023/06/03 01:14:17;;;;;;;10.38;6.47;;;;;;;;;;2017988;29;20036;-89
2023/06/03 01:15:20;;;;;;;9.32;6.50;;;;;;;;;;2016907;29;20096;-89
2023/06/03 01:16:23;;;;;;;10.18;6.75;;;;;;;;;;2009214;29;20454;-89
2023/06/03 01:17:27;;;;;;;8.23;6.60;;;;;;;;;;2017001;29;20124;-88
2023/06/03 01:18:29;;;;;;;8.60;6.10;;;;;;;;;;2024938;29;20043;-88
2023/06/03 01:19:48;;;;;;;8.57;6.00;;;;;;;;;;2016601;29;20029;-89
2023/06/03 01:20:50;;;;;;;8.77;6.40;;;;;;;;;;2018872;29;20032;-89
2023/06/03 01:21:53;;;;;;;6.82;6.13;;;;;;;;;;2016471;29;20566;-88
2023/06/03 01:23:33;;;;;;;7.90;6.30;;;;;;;;;;2016623;29;20402;-88
2023/06/03 01:24:34;;;;;;;10.45;5.82;;;;;;;;;;2016523;29;20050;-88
2023/06/03 01:25:35;;;;;;;8.43;6.82;;;;;;;;;;2016457;29;20033;-88
2023/06/03 01:26:36;;;;;;;8.85;6.70;;;;;;;;;;2016520;29;20033;-87
2023/06/03 01:27:38;;;;;;;11.43;6.82;;;;;;;;;;2024752;29;20032;-89
2023/06/03 01:28:39;;;;;;;9.73;6.57;;;;;;;;;;2024924;29;20040;-88
2023/06/03 01:29:41;;;;;;;10.77;6.30;;;;;;;;;;2025270;29;20032;-89
2023/06/03 01:30:42;;;;;;;10.02;6.40;;;;;;;;;;2024898;29;20430;-87
2023/06/03 01:31:42;;;;;;;10.50;7.35;;;;;;;;;;2024870;29;20029;-88
2023/06/03 01:32:44;;;;;;;10.00;7.05;;;;;;;;;;2016506;29;20088;-87
2023/06/03 01:33:45;;;;;;;7.47;6.38;;;;;;;;;;2016473;29;20112;-87
2023/06/03 01:34:47;;;;;;;8.98;6.65;;;;;;;;;;2024830;29;20033;-87
2023/06/03 01:35:48;;;;;;;10.45;6.93;;;;;;;;;;2016489;29;20029;-88
2023/06/03 01:36:49;;;;;;;8.82;6.85;;;;;;;;;;2008797;29;20030;-87
2023/06/03 01:37:51;;;;;;;10.27;7.20;;;;;;;;;;2016381;29;20021;-87
2023/06/03 01:38:51;;;;;;;8.68;6.82;;;;;;;;;;2025270;29;20024;-88
2023/06/03 01:39:54;;;;;;;8.30;6.78;;;;;;;;;;2016238;29;20021;-88
2023/06/03 01:40:54;;;;;;;10.45;7.15;;;;;;;;;;2008884;29;20022;-89
2023/06/03 01:41:55;;;;;;;8.38;6.60;;;;;;;;;;2016465;29;20028;-89
2023/06/03 01:42:56;;;;;;;9.95;6.90;;;;;;;;;;2018449;29;20133;-88
2023/06/03 01:43:57;;;;;;;18.73;7.18;;;;;;;;;;2018245;29;20024;-88
2023/06/03 01:44:58;;;;;;;9.18;6.80;;;;;;;;;;2009696;29;20029;-89
2023/06/03 01:45:59;;;;;;;8.88;6.22;;;;;;;;;;2008956;29;20025;-89
2023/06/03 01:46:59;;;;;;;8.07;6.95;;;;;;;;;;2016516;29;20052;-89
2023/06/03 01:48:00;;;;;;;8.57;6.90;;;;;;;;;;2024063;29;20116;-89
2023/06/03 01:49:02;;;;;;;8.50;6.78;;;;;;;;;;2024346;29;20509;-89
2023/06/03 01:50:03;;;;;;;10.70;6.43;;;;;;;;;;2017024;29;20051;-88
2023/06/03 01:51:03;;;;;;;8.07;6.57;;;;;;;;;;2020299;29;20052;-88
2023/06/03 01:52:04;;;;;;;8.50;6.40;;;;;;;;;;2018736;29;20058;-88
2023/06/03 01:53:04;;;;;;;12.70;7.47;;;;;;;;;;1665123;29;10253348;-89
2023/06/03 01:54:05;;;;;;;8.60;6.35;;;;;;;;;;2016400;29;20076;-89
2023/06/03 01:55:06;;;;;;;7.72;6.20;;;;;;;;;;2016607;29;20100;-89
2023/06/03 01:56:07;;;;;;;10.38;7.38;;;;;;;;;;2016899;29;20033;-88
2023/06/03 01:57:07;;;;;;;9.05;6.68;;;;;;;;;;2024745;29;20029;-89
2023/06/03 01:58:07;;;;;;;10.20;7.57;;;;;;;;;;2016329;29;20107;-89
2023/06/03 01:59:08;;;;;;;12.77;7.15;;;;;;;;;;2008767;29;20528;-89
2023/06/03 02:00:11;;;;;;;8.95;7.22;;;;;;;;;;2016574;29;20040;-89
2023/06/03 02:01:13;;;;;;;8.55;6.78;;;;;;;;;;2024797;29;20040;-89
2023/06/03 02:02:14;;;;;;;8.45;6.32;;;;;;;;;;2024857;29;20107;-89
2023/06/03 02:03:14;;;;;;;12.80;7.40;;;;;;;;;;2016356;29;20037;-87
2023/06/03 02:04:15;;;;;;;8.15;6.88;;;;;;;;;;2016633;29;20025;-90
2023/06/03 02:05:22;;;;;;;12.75;7.28;;;;;;;;;;1914953;29;10229241;-89
2023/06/03 02:06:22;;;;;;;11.82;7.20;;;;;;;;;;2009686;29;20302;-89
2023/06/03 02:07:25;;;;;;;7.57;6.45;;;;;;;;;;2016527;29;20029;-89
2023/06/03 02:08:26;;;;;;;7.97;7.18;;;;;;;;;;2024320;29;20032;-89
2023/06/03 02:09:28;;;;;;;9.73;6.97;;;;;;;;;;2024369;29;20032;-89
2023/06/03 02:10:29;;;;;;;10.73;7.05;;;;;;;;;;2024793;29;20036;-89
2023/06/03 02:11:29;;;;;;;8.40;6.57;;;;;;;;;;2016557;29;20029;-89
2023/06/03 02:12:30;;;;;;;8.30;6.80;;;;;;;;;;2016299;29;20047;-89
2023/06/03 02:13:30;;;;;;;11.75;6.93;;;;;;;;;;2024069;29;20048;-89
2023/06/03 02:14:32;;;;;;;10.38;6.72;;;;;;;;;;2016291;29;20052;-89
2023/06/03 02:15:32;;;;;;;9.80;7.65;;;;;;;;;;2024569;29;20103;-89
2023/06/03 02:16:33;;;;;;;9.18;7.07;;;;;;;;;;2016239;29;20069;-89
2023/06/03 02:17:33;;;;;;;10.13;7.05;;;;;;;;;;2016330;29;20501;-89
2023/06/03 02:18:37;;;;;;;8.75;6.90;;;;;;;;;;1774650;29;10217562;-89
2023/06/03 02:19:38;;;;;;;9.35;7.68;;;;;;;;;;2018528;29;20242;-89
2023/06/03 02:20:38;;;;;;;10.82;7.47;;;;;;;;;;2030091;29;20271;-89
2023/06/03 02:21:39;;;;;;;8.98;6.97;;;;;;;;;;2030854;29;20036;-90
2023/06/03 02:22:39;;;;;;;10.27;7.05;;;;;;;;;;2016089;29;20510;-89
2023/06/03 02:23:40;;;;;;;9.05;7.20;;;;;;;;;;2016384;29;20125;-88
2023/06/03 02:24:40;;;;;;;8.25;6.95;;;;;;;;;;2016108;29;20033;-88
2023/06/03 02:25:41;;;;;;;9.60;7.50;;;;;;;;;;2008488;29;20029;-88
2023/06/03 02:26:54;;;;;;;8.75;6.70;;;;;;;;;;2008502;29;20070;-88
2023/06/03 02:27:58;;;;;;;8.98;6.90;;;;;;;;;;2009833;29;20533;-88
2023/06/03 02:28:58;;;;;;;10.55;7.38;;;;;;;;;;2010389;29;20029;-88
2023/06/03 02:29:58;;;;;;;7.93;7.00;;;;;;;;;;2008314;29;20116;-88
2023/06/03 02:30:59;;;;;;;9.70;6.80;;;;;;;;;;2015708;29;20028;-88
2023/06/03 02:32:01;;;;;;;9.52;7.53;;;;;;;;;;2023682;29;20584;-88
2023/06/03 02:33:01;;;;;;;11.40;8.15;;;;;;;;;;2023710;29;20141;-88
2023/06/03 02:34:02;;;;;;;8.70;7.25;;;;;;;;;;2015969;29;20086;-88
2023/06/03 02:35:02;;;;;;;9.30;7.50;;;;;;;;;;2008525;29;20032;-88
2023/06/03 02:36:03;;;;;;;8.32;6.63;;;;;;;;;;2008258;29;20093;-88
2023/06/03 02:37:05;;;;;;;8.63;7.10;;;;;;;;;;2008262;29;20112;-88
2023/06/03 02:38:05;;;;;;;8.98;7.43;;;;;;;;;;2016216;29;20078;-89
2023/06/03 02:39:09;;;;;;;11.40;7.70;;;;;;;;;;2016298;29;20493;-88
2023/06/03 02:40:10;;;;;;;11.15;7.05;;;;;;;;;;2016152;29;20039;-88
2023/06/03 02:41:11;;;;;;;8.57;6.93;;;;;;;;;;2009265;29;20506;-86
2023/06/03 02:42:11;;;;;;;8.38;7.10;;;;;;;;;;2021411;29;20099;-87
2023/06/03 02:43:13;;;;;;;9.25;6.88;;;;;;;;;;2016077;29;20029;-89
2023/06/03 02:44:14;;;;;;;11.35;7.15;;;;;;;;;;2016450;29;20163;-88
2023/06/03 02:45:15;;;;;;;8.68;6.75;;;;;;;;;;2024752;29;20105;-88
2023/06/03 02:46:15;;;;;;;10.57;7.20;;;;;;;;;;2024723;29;20032;-88
2023/06/03 02:47:16;;;;;;;9.85;6.78;;;;;;;;;;2016377;29;20185;-89
2023/06/03 02:48:16;;;;;;;8.15;7.05;;;;;;;;;;2008502;29;20057;-88
2023/06/03 02:49:16;;;;;;;11.57;7.32;;;;;;;;;;2015640;29;20033;-89
2023/06/03 02:50:17;;;;;;;11.48;7.28;;;;;;;;;;2024021;29;20029;-89
2023/06/03 02:51:17;;;;;;;8.98;6.82;;;;;;;;;;2024428;29;20036;-89
2023/06/03 02:52:18;;;;;;;10.10;6.78;;;;;;;;;;2016089;29;20029;-89
2023/06/03 02:53:18;;;;;;;9.77;7.22;;;;;;;;;;2016078;29;20044;-88
2023/06/03 02:54:20;;;;;;;8.60;7.10;;;;;;;;;;2016172;29;20028;-88
2023/06/03 02:55:23;;;;;;;11.02;7.28;;;;;;;;;;2016328;29;20033;-88
2023/06/03 02:56:24;;;;;;;9.38;6.97;;;;;;;;;;1676818;29;10081444;-88
2023/06/03 02:57:25;;;;;;;10.93;7.35;;;;;;;;;;2017166;29;20408;-88
2023/06/03 02:58:25;;;;;;;10.68;7.05;;;;;;;;;;2017184;29;20068;-89
2023/06/03 02:59:26;;;;;;;8.95;7.45;;;;;;;;;;2016214;29;20450;-89
2023/06/03 03:00:26;;;;;;;10.75;6.72;;;;;;;;;;2024573;29;20120;-89
2023/06/03 03:01:27;;;;;;;10.85;7.22;;;;;;;;;;2024529;29;20036;-88
2023/06/03 03:02:28;;;;;;;9.05;7.38;;;;;;;;;;2024542;29;20118;-89
2023/06/03 03:03:29;;;;;;;9.93;7.60;;;;;;;;;;2024563;29;20102;-91
2023/06/03 03:04:36;;;;;;;9.32;6.55;;;;;;;;;;2016043;29;20056;-91
2023/06/03 03:05:36;;;;;;;8.95;7.53;;;;;;;;;;2008950;29;20062;-89
2023/06/03 03:06:37;;;;;;;11.30;7.68;;;;;;;;;;2008450;29;20026;-89
2023/06/03 03:07:37;;;;;;;9.45;6.75;;;;;;;;;;2021837;29;20073;-88
2023/06/03 03:08:38;;;;;;;8.68;7.53;;;;;;;;;;2024758;29;20024;-89
2023/06/03 03:09:41;;;;;;;11.35;7.35;;;;;;;;;;2024780;29;20112;-90
2023/06/03 03:10:41;;;;;;;10.77;7.78;;;;;;;;;;2024980;29;20104;-90
2023/06/03 03:11:41;;;;;;;10.10;7.28;;;;;;;;;;2025354;29;20029;-90
2023/06/03 03:12:44;;;;;;;8.38;7.32;;;;;;;;;;2033427;29;20073;-89
2023/06/03 03:13:45;;;;;;;8.57;7.13;;;;;;;;;;2025458;29;20044;-89
2023/06/03 03:14:46;;;;;;;11.18;7.47;;;;;;;;;;2023538;29;20054;-89
2023/06/03 03:15:47;;;;;;;13.23;7.38;;;;;;;;;;2025147;29;20086;-90
2023/06/03 03:16:50;;;;;;;12.75;7.75;;;;;;;;;;2026021;29;20081;-89
2023/06/03 03:17:50;;;;;;;8.63;7.28;;;;;;;;;;2022850;29;20036;-90
2023/06/03 03:18:52;;;;;;;11.30;7.43;;;;;;;;;;2018540;29;20044;-90
2023/06/03 03:19:53;;;;;;;9.48;7.90;;;;;;;;;;2025004;29;20415;-90
2023/06/03 03:20:54;;;;;;;7.90;6.75;;;;;;;;;;2024916;29;20252;-89
2023/06/03 03:21:55;;;;;;;10.07;7.38;;;;;;;;;;2024849;29;20040;-90
2023/06/03 03:22:55;;;;;;;9.35;7.70;;;;;;;;;;2024658;29;20029;-90
2023/06/03 03:23:56;;;;;;;15.02;7.43;;;;;;;;;;2016353;29;20081;-89
2023/06/03 03:24:57;;;;;;;12.55;7.78;;;;;;;;;;2008319;29;20045;-90
2023/06/03 03:26:02;;;;;;;8.48;6.88;;;;;;;;;;2016562;29;20025;-90
2023/06/03 03:27:03;;;;;;;9.75;6.80;;;;;;;;;;2023954;29;20020;-90
2023/06/03 03:28:04;;;;;;;8.18;7.20;;;;;;;;;;2024188;29;20020;-89
2023/06/03 03:29:05;;;;;;;10.00;7.00;;;;;;;;;;2027872;29;20440;-90
2023/06/03 03:30:07;;;;;;;10.02;7.15;;;;;;;;;;2021158;29;20036;-90
2023/06/03 03:31:09;;;;;;;10.38;6.90;;;;;;;;;;2025092;29;20052;-90
2023/06/03 03:32:09;;;;;;;11.63;7.50;;;;;;;;;;2026629;29;20077;-89
2023/06/03 03:33:10;;;;;;;7.88;6.88;;;;;;;;;;1686158;29;10257145;-89
2023/06/03 03:34:12;;;;;;;8.35;6.28;;;;;;;;;;2025759;29;20025;-89
2023/06/03 03:35:14;;;;;;;8.07;6.70;;;;;;;;;;2018216;29;20017;-89
2023/06/03 03:36:22;;;;;;;8.77;6.85;;;;;;;;;;2023545;29;20025;-89
2023/06/03 03:37:22;;;;;;;8.65;6.38;;;;;;;;;;2016246;29;20545;-90
2023/06/03 03:38:23;;;;;;;7.22;6.20;;;;;;;;;;2016238;29;20037;-89
2023/06/03 03:39:23;;;;;;;8.60;6.57;;;;;;;;;;2023651;29;20127;-90
2023/06/03 03:40:25;;;;;;;13.18;7.15;;;;;;;;;;2023607;29;20044;-90
2023/06/03 03:41:25;;;;;;;12.85;6.90;;;;;;;;;;2015911;29;20144;-90
2023/06/03 03:42:26;;;;;;;8.52;6.78;;;;;;;;;;2016225;29;20494;-90
2023/06/03 03:43:26;;;;;;;10.25;7.25;;;;;;;;;;2024154;29;20111;-90
2023/06/03 03:44:31;;;;;;;9.80;7.07;;;;;;;;;;2016202;29;20029;-90
2023/06/03 03:45:37;;;;;;;9.73;7.22;;;;;;;;;;2020549;29;20104;-89
2023/06/03 03:46:51;;;;;;;11.23;7.55;;;;;;;;;;2016134;29;20033;-90
2023/06/03 03:47:56;;;;;;;8.52;6.88;;;;;;;;;;2017685;29;20051;-89
2023/06/03 03:48:57;;;;;;;7.47;6.72;;;;;;;;;;2015536;29;20273;-89
2023/06/03 03:50:00;;;;;;;9.05;6.47;;;;;;;;;;2015721;29;20029;-90
2023/06/03 03:51:01;;;;;;;11.18;7.40;;;;;;;;;;2023558;29;20039;-89
2023/06/03 03:52:04;;;;;;;9.65;6.90;;;;;;;;;;2023448;29;20028;-88
2023/06/03 03:53:09;;;;;;;10.05;6.45;;;;;;;;;;2015805;29;20048;-91
2023/06/03 03:54:10;;;;;;;10.55;6.30;;;;;;;;;;2016439;29;20040;-90
2023/06/03 03:55:11;;;;;;;7.82;6.32;;;;;;;;;;2024696;29;20501;-90
2023/06/03 03:56:20;;;;;;;8.88;6.53;;;;;;;;;;2033263;29;20035;-89
2023/06/03 03:57:21;;;;;;;9.98;6.57;;;;;;;;;;2026714;29;20029;-89
2023/06/03 03:58:41;;;;;;;8.45;6.45;;;;;;;;;;2020891;29;20021;-91
2023/06/03 03:59:42;;;;;;;7.53;6.03;;;;;;;;;;2025950;29;20039;-90
2023/06/03 04:00:43;;;;;;;6.93;5.50;;;;;;;;;;2017338;29;20032;-90
2023/06/03 04:01:43;;;;;;;7.93;5.93;;;;;;;;;;2017408;29;20041;-90
2023/06/03 04:02:46;;;;;;;6.95;6.10;;;;;;;;;;2017133;29;20410;-90
2023/06/03 04:03:50;;;;;;;8.90;6.30;;;;;;;;;;1669404;29;10150735;-89
2023/06/03 04:04:52;;;;;;;7.28;5.88;;;;;;;;;;2017461;29;20052;-89
2023/06/03 04:05:53;;;;;;;8.27;6.00;;;;;;;;;;2017160;29;20429;-89
2023/06/03 04:06:54;;;;;;;9.18;5.95;;;;;;;;;;2017310;29;20020;-89
2023/06/03 04:07:56;;;;;;;8.93;6.03;;;;;;;;;;2025524;29;20076;-89
2023/06/03 04:08:56;;;;;;;9.43;6.30;;;;;;;;;;2025354;29;20047;-89
2023/06/03 04:09:57;;;;;;;7.93;6.43;;;;;;;;;;2025601;29;20032;-90
2023/06/03 04:10:59;;;;;;;9.45;6.05;;;;;;;;;;2017211;29;20587;-89
2023/06/03 04:12:02;;;;;;;7.28;5.63;;;;;;;;;;2017159;29;20114;-90
2023/06/03 04:13:06;;;;;;;6.30;5.60;;;;;;;;;;2016996;29;20039;-89
2023/06/03 04:14:08;;;;;;;7.85;5.88;;;;;;;;;;2017639;29;20092;-90
2023/06/03 04:15:09;;;;;;;12.00;6.35;;;;;;;;;;2017193;29;20052;-90
2023/06/03 04:16:36;;;;;;;8.45;6.63;;;;;;;;;;2017164;29;20021;-90
2023/06/03 04:17:37;;;;;;;8.38;6.05;;;;;;;;;;1335619;29;10001061;-89
2023/06/03 04:18:40;;;;;;;8.95;5.57;;;;;;;;;;2017193;29;20039;-90
2023/06/03 04:19:41;;;;;;;9.45;6.15;;;;;;;;;;2024128;29;20040;-89
2023/06/03 04:20:45;;;;;;;9.10;5.60;;;;;;;;;;2009338;29;20048;-89
2023/06/03 04:21:46;;;;;;;8.18;5.90;;;;;;;;;;2010788;29;20154;-89
2023/06/03 04:22:51;;;;;;;7.95;5.95;;;;;;;;;;2027848;29;20361;-87
2023/06/03 04:23:51;;;;;;;7.38;5.90;;;;;;;;;;2029124;29;20024;-89
2023/06/03 04:25:00;;;;;;;8.90;5.68;;;;;;;;;;2026032;29;20032;-88
2023/06/03 04:26:02;;;;;;;8.43;5.70;;;;;;;;;;2026017;29;20083;-89
2023/06/03 04:27:08;;;;;;;8.52;6.07;;;;;;;;;;2017117;29;20104;-89
2023/06/03 04:28:10;;;;;;;8.98;5.95;;;;;;;;;;2016802;29;20041;-89
2023/06/03 04:29:11;;;;;;;8.27;6.00;;;;;;;;;;2017477;29;20501;-89
2023/06/03 04:30:11;;;;;;;8.75;5.68;;;;;;;;;;2025699;29;20060;-89
2023/06/03 04:31:12;;;;;;;8.73;6.22;;;;;;;;;;2025576;29;20036;-89
2023/06/03 04:32:12;;;;;;;11.73;7.15;;;;;;;;;;2018050;29;20036;-90
2023/06/03 04:33:12;;;;;;;6.60;5.78;;;;;;;;;;2017252;29;20119;-90
2023/06/03 04:34:13;;;;;;;8.15;5.13;;;;;;;;;;2024385;29;20056;-89
2023/06/03 04:35:13;;;;;;;7.22;5.55;;;;;;;;;;2012236;29;20412;-90
2023/06/03 04:36:14;;;;;;;6.57;5.75;;;;;;;;;;2018039;29;20045;-90
2023/06/03 04:37:14;;;;;;;8.32;5.75;;;;;;;;;;2028671;29;20110;-90
2023/06/03 04:38:15;;;;;;;6.50;5.30;;;;;;;;;;2027150;29;20386;-90
2023/06/03 04:39:17;;;;;;;6.72;5.68;;;;;;;;;;2017351;29;20029;-90
2023/06/03 04:40:18;;;;;;;7.60;5.43;;;;;;;;;;2017817;29;20029;-90
2023/06/03 04:41:18;;;;;;;9.10;5.70;;;;;;;;;;2025328;29;20036;-89
2023/06/03 04:42:19;;;;;;;7.18;5.55;;;;;;;;;;2017284;29;20021;-90
2023/06/03 04:43:22;;;;;;;8.35;5.95;;;;;;;;;;2017231;29;20033;-90
2023/06/03 04:44:22;;;;;;;9.35;5.85;;;;;;;;;;2025808;29;20037;-88
2023/06/03 04:45:23;;;;;;;7.60;5.72;;;;;;;;;;2025681;29;20505;-90
2023/06/03 04:46:29;;;;;;;8.23;5.88;;;;;;;;;;2018324;29;20597;-89
2023/06/03 04:47:29;;;;;;;8.10;6.13;;;;;;;;;;2020692;29;20033;-89
2023/06/03 04:48:30;;;;;;;6.80;5.32;;;;;;;;;;2016875;29;20116;-88
2023/06/03 04:49:32;;;;;;;6.60;5.53;;;;;;;;;;2009435;29;20025;-88
2023/06/03 04:50:34;;;;;;;5.93;4.88;;;;;;;;;;2016928;29;20024;-89
2023/06/03 04:51:35;;;;;;;8.13;5.43;;;;;;;;;;2025350;29;20461;-90
2023/06/03 04:52:36;;;;;;;7.97;5.25;;;;;;;;;;2017158;29;20033;-90
2023/06/03 04:53:36;;;;;;;8.05;5.47;;;;;;;;;;2016978;29;20067;-89
2023/06/03 04:54:37;;;;;;;7.28;5.32;;;;;;;;;;2025230;29;20092;-89
2023/06/03 04:55:43;;;;;;;6.07;5.00;;;;;;;;;;2022324;29;20040;-90
2023/06/03 04:56:47;;;;;;;7.32;5.30;;;;;;;;;;2020116;29;20057;-89
2023/06/03 04:57:50;;;;;;;8.93;5.15;;;;;;;;;;2033341;29;20035;-89
2023/06/03 04:58:57;;;;;;;6.80;5.18;;;;;;;;;;1680675;29;10260026;-90
2023/06/03 04:59:58;;;;;;;5.97;5.38;;;;;;;;;;2007101;29;20048;-89
2023/06/03 05:00:59;;;;;;;5.63;5.03;;;;;;;;;;2010504;29;20029;-89
2023/06/03 05:02:00;;;;;;;7.00;4.95;;;;;;;;;;2018909;29;20032;-89
2023/06/03 05:03:01;;;;;;;8.52;5.38;;;;;;;;;;2024475;29;20028;-89
2023/06/03 05:04:02;;;;;;;7.32;5.63;;;;;;;;;;2026210;29;20542;-89
2023/06/03 05:05:03;;;;;;;8.70;6.05;;;;;;;;;;2018323;29;20085;-90
2023/06/03 05:06:08;;;;;;;6.85;5.22;;;;;;;;;;2016753;29;20029;-90
2023/06/03 05:07:11;;;;;;;9.20;5.25;;;;;;;;;;2025793;29;20059;-90
2023/06/03 05:08:12;;;;;;;6.78;5.72;;;;;;;;;;2025490;29;20032;-90
2023/06/03 05:09:13;;;;;;;6.28;5.20;;;;;;;;;;2016691;29;20127;-90
2023/06/03 05:10:13;;;;;;;6.53;5.05;;;;;;;;;;2016666;29;20115;-90
2023/06/03 05:11:18;;;;;;;7.85;5.57;;;;;;;;;;2016841;29;20036;-90
2023/06/03 05:12:22;;;;;;;6.93;5.45;;;;;;;;;;2009654;29;20473;-89
2023/06/03 05:13:22;;;;;;;9.63;5.82;;;;;;;;;;2018340;29;20454;-88
2023/06/03 05:14:23;;;;;;;8.50;5.82;;;;;;;;;;2028838;29;20064;-90
2023/06/03 05:15:23;;;;;;;8.95;5.60;;;;;;;;;;2025459;29;20033;-90
2023/06/03 05:16:25;;;;;;;11.00;5.90;;;;;;;;;;2017049;29;20419;-90
2023/06/03 05:17:25;;;;;;;6.47;5.32;;;;;;;;;;2016957;29;20080;-90
2023/06/03 05:18:26;;;;;;;6.95;5.55;;;;;;;;;;2025666;29;20040;-90
2023/06/03 05:19:26;;;;;;;6.63;5.90;;;;;;;;;;2027407;29;20031;-90
2023/06/03 05:20:27;;;;;;;6.72;5.07;;;;;;;;;;2027420;29;20405;-89
2023/06/03 05:21:27;;;;;;;9.18;5.70;;;;;;;;;;2026366;29;20481;-90
2023/06/03 05:22:28;;;;;;;8.18;5.45;;;;;;;;;;1686951;29;9999950;-90
2023/06/03 05:23:28;;;;;;;5.70;5.00;;;;;;;;;;2016728;29;20506;-89
2023/06/03 05:24:29;;;;;;;8.77;5.53;;;;;;;;;;2009348;29;20473;-90
2023/06/03 05:25:29;;;;;;;9.65;5.57;;;;;;;;;;2009314;29;20176;-90
2023/06/03 05:26:30;;;;;;;8.13;5.05;;;;;;;;;;2009190;29;20026;-90
2023/06/03 05:27:30;;;;;;;10.63;5.00;;;;;;;;;;2009069;29;20566;-90
2023/06/03 05:28:31;;;;;;;11.05;5.30;;;;;;;;;;2009114;29;20070;-90
2023/06/03 05:29:31;;;;;;;6.10;4.63;;;;;;;;;;2016861;29;20029;-90
2023/06/03 05:30:31;;;;;;;9.05;5.50;;;;;;;;;;2016886;29;20060;-90
2023/06/03 05:31:32;;;;;;;8.98;4.95;;;;;;;;;;2011908;29;20029;-89
2023/06/03 05:32:32;;;;;;;5.65;4.55;;;;;;;;;;2016545;29;20550;-89
2023/06/03 05:33:35;;;;;;;6.22;5.03;;;;;;;;;;2023525;29;20036;-91
2023/06/03 05:34:35;;;;;;;7.75;4.82;;;;;;;;;;2017244;29;20041;-90
2023/06/03 05:35:36;;;;;;;5.82;4.45;;;;;;;;;;2016968;29;20021;-90
2023/06/03 05:36:36;;;;;;;6.15;4.55;;;;;;;;;;2025696;29;20040;-89
2023/06/03 05:37:37;;;;;;;7.60;4.55;;;;;;;;;;2025431;29;20108;-90
2023/06/03 05:38:38;;;;;;;6.22;4.38;;;;;;;;;;2017190;29;20516;-89
2023/06/03 05:39:38;;;;;;;6.45;4.50;;;;;;;;;;2017597;29;20052;-89
2023/06/03 05:40:38;;;;;;;8.43;5.40;;;;;;;;;;2025420;29;20505;-90
2023/06/03 05:41:39;;;;;;;7.97;4.85;;;;;;;;;;2025378;29;20108;-90
2023/06/03 05:42:39;;;;;;;9.05;5.20;;;;;;;;;;2027723;29;20035;-90
2023/06/03 05:43:39;;;;;;;6.13;4.78;;;;;;;;;;2032309;29;20017;-89
2023/06/03 05:44:40;;;;;;;12.23;5.43;;;;;;;;;;2026333;29;20029;-90
2023/06/03 05:45:43;;;;;;;7.63;4.90;;;;;;;;;;2019529;29;20018;-89
2023/06/03 05:46:44;;;;;;;5.15;4.30;;;;;;;;;;2025038;29;20393;-90
2023/06/03 05:47:44;;;;;;;6.72;4.45;;;;;;;;;;2033028;29;20035;-90
2023/06/03 05:48:45;;;;;;;6.38;4.72;;;;;;;;;;2028840;29;20024;-91
2023/06/03 05:49:48;;;;;;;5.75;4.90;;;;;;;;;;2025390;29;20043;-90
2023/06/03 05:50:52;;;;;;;6.88;4.75;;;;;;;;;;2025365;29;20107;-90
2023/06/03 05:51:52;;;;;;;5.82;4.00;;;;;;;;;;2024859;29;20020;-90
2023/06/03 05:52:55;;;;;;;6.75;5.25;;;;;;;;;;2016622;29;20419;-90
2023/06/03 05:53:58;;;;;;;5.32;4.38;;;;;;;;;;2009471;29;20029;-91
2023/06/03 05:55:24;;;;;;;6.38;4.30;;;;;;;;;;2017751;29;20028;-91
2023/06/03 05:56:24;;;;;;;5.20;4.28;;;;;;;;;;2025338;29;20036;-91
2023/06/03 05:57:25;;;;;;;7.03;4.40;;;;;;;;;;2025077;29;20401;-91
2023/06/03 05:58:26;;;;;;;6.57;4.57;;;;;;;;;;2024768;29;20059;-90
2023/06/03 05:59:26;;;;;;;7.15;4.47;;;;;;;;;;2024818;29;20477;-90
2023/06/03 06:00:27;;;;;;;5.40;4.00;;;;;;;;;;2024718;29;20032;-90
2023/06/03 06:01:30;;;;;;;5.68;4.03;;;;;;;;;;2013438;29;20031;-90
2023/06/03 06:02:30;;;;;;;6.03;3.85;;;;;;;;;;2015791;29;20136;-90
2023/06/03 06:06:09;;;;;;;5.82;3.83;;;;;;;;;;2263160;23;20074;-89
2023/06/03 06:07:10;;;;;;;4.80;3.95;;;;;;;;;;2042256;29;20036;-89
2023/06/03 06:08:13;;;;;;;4.10;3.45;;;;;;;;;;2034501;29;20052;-90
2023/06/03 06:09:14;;;;;;;3.72;3.25;;;;;;;;;;2032430;29;20063;-90
2023/06/03 06:10:14;;;;;;;5.13;4.03;;;;;;;;;;2023846;29;20409;-90
2023/06/03 06:11:43;;;;;;;5.28;4.13;;;;;;;;;;2016002;29;20131;-90
2023/06/03 06:12:44;;;;;;;5.10;3.70;;;;;;;;;;2026665;29;20393;-90